Time;durP1;ratioP1;P1;durP2;ratioP2;P2;SDS_P1;SDS_P2;PMS_P1;PMS_P2;Temp;Humidity;BMP_temperature;BMP_pressure;BME280_temperature;BME280_humidity;BME280_pressure;Samples;Min_cycle;Max_cycle;Signal;HPM_P1;HPM_P2
2023/07/05 00:01:18;;;;;;;433.48;228.95;;;;;;;20.25;50.05;97785.16;5055301;28;20044;-72
2023/07/05 00:03:43;;;;;;;1999.90;999.90;;;;;;;20.15;50.66;97780.75;5061291;28;20550;-73
2023/07/05 00:06:09;;;;;;;1999.90;999.90;;;;;;;19.93;51.21;97783.53;5067993;28;20111;-73
2023/07/05 00:08:34;;;;;;;1999.90;999.90;;;;;;;19.72;51.74;97774.28;5060523;28;20027;-73
2023/07/05 00:11:07;;;;;;;1999.90;999.90;;;;;;;19.62;52.60;97786.28;5069802;28;20028;-73
2023/07/05 00:13:33;;;;;;;1999.90;999.90;;;;;;;19.13;53.51;97789.94;5072453;28;20033;-73
2023/07/05 00:15:59;;;;;;;1999.90;999.90;;;;;;;18.98;53.61;97790.28;5059087;28;20130;-73
2023/07/05 00:18:25;;;;;;;1999.90;999.90;;;;;;;19.38;52.30;97782.25;5059472;28;20132;-73
2023/07/05 00:20:51;;;;;;;1999.90;999.90;;;;;;;19.44;52.77;97781.03;5064181;28;20055;-73
2023/07/05 00:23:16;;;;;;;1999.90;999.90;;;;;;;19.51;52.72;97781.41;5050830;28;20051;-73
2023/07/05 00:25:41;;;;;;;1999.90;999.90;;;;;;;19.41;52.65;97771.53;5065258;28;20112;-73
2023/07/05 00:28:07;;;;;;;1999.90;999.90;;;;;;;19.58;52.33;97771.63;5062614;28;20483;-73
2023/07/05 00:30:32;;;;;;;1999.90;999.90;;;;;;;19.48;51.91;97773.81;5058370;28;20028;-73
2023/07/05 00:32:57;;;;;;;1999.90;999.90;;;;;;;19.66;51.92;97767.34;5060823;28;20376;-73
2023/07/05 00:35:23;;;;;;;1999.90;999.90;;;;;;;19.56;52.38;97762.94;5064984;28;20035;-73
2023/07/05 00:37:48;;;;;;;1999.90;999.90;;;;;;;19.42;52.38;97761.44;5062869;28;20040;-73
2023/07/05 00:40:14;;;;;;;1999.90;999.90;;;;;;;19.49;52.06;97759.03;5066602;28;20029;-73
2023/07/05 00:42:39;;;;;;;1999.90;999.90;;;;;;;19.37;52.54;97756.09;5033618;28;20677;-73
2023/07/05 00:45:10;;;;;;;1999.90;999.90;;;;;;;19.29;52.31;97763.88;5037907;28;20115;-73
2023/07/05 00:47:38;;;;;;;541.08;280.23;;;;;;;19.20;52.37;97760.28;5070355;28;20140;-73
2023/07/05 00:50:13;;;;;;;355.60;122.63;;;;;;;19.32;52.29;97760.50;5048906;28;20035;-73
2023/07/05 00:52:39;;;;;;;268.33;161.40;;;;;;;19.04;52.59;97761.75;5063599;28;20509;-73
2023/07/05 00:55:05;;;;;;;281.52;26.48;;;;;;;19.17;52.50;97747.25;5047751;28;20036;-73
2023/07/05 00:57:33;;;;;;;832.70;281.38;;;;;;;19.26;52.83;97750.84;5030920;28;20099;-73
2023/07/05 01:00:06;;;;;;;51.03;48.10;;;;;;;19.20;52.82;97749.38;5054289;28;20054;-74
2023/07/05 01:02:32;;;;;;;2.83;2.50;;;;;;;19.01;53.21;97746.00;5064082;28;20032;-74
2023/07/05 01:04:59;;;;;;;7.80;3.05;;;;;;;19.03;53.03;97738.31;5037685;28;20056;-74
2023/07/05 01:07:24;;;;;;;4.93;2.90;;;;;;;19.13;52.52;97742.72;5063937;28;20079;-73
2023/07/05 01:09:50;;;;;;;4.30;2.30;;;;;;;19.01;52.79;97739.72;5033060;28;20025;-74
2023/07/05 01:12:39;;;;;;;374.17;119.93;;;;;;;19.32;52.37;97733.19;5050013;28;20530;-72
2023/07/05 01:15:12;;;;;;;7.80;2.80;;;;;;;19.20;52.60;97727.53;5053081;28;20036;-73
2023/07/05 01:17:46;;;;;;;1999.90;999.90;;;;;;;19.13;52.50;97729.06;5056903;28;20520;-72
2023/07/05 01:20:41;;;;;;;242.90;123.45;;;;;;;19.13;52.35;97727.16;5073490;28;20491;-72
2023/07/05 01:23:37;;;;;;;5.03;2.47;;;;;;;19.05;52.92;97730.63;5062852;28;20549;-73
2023/07/05 01:26:40;;;;;;;6.07;2.55;;;;;;;18.83;53.14;97727.88;5061742;28;20403;-73
2023/07/05 01:29:42;;;;;;;4.78;2.08;;;;;;;18.91;53.25;97718.13;5068490;28;20037;-73
2023/07/05 01:32:29;;;;;;;2.58;2.38;;;;;;;18.83;53.44;97714.25;5057006;28;20705;-73
2023/07/05 01:34:59;;;;;;;4.75;2.30;;;;;;;18.62;53.78;97715.84;5053411;28;20055;-75
2023/07/05 01:37:33;;;;;;;5.35;2.63;;;;;;;18.61;54.22;97714.22;5040645;28;20036;-75
2023/07/05 01:39:59;;;;;;;4.88;2.47;;;;;;;18.55;53.86;97707.25;5060064;28;20395;-74
2023/07/05 01:42:28;;;;;;;4.72;2.83;;;;;;;18.74;53.48;97705.16;5064858;28;20025;-74
2023/07/05 01:44:53;;;;;;;3.17;2.35;;;;;;;18.74;53.20;97696.97;5050057;28;20046;-74
2023/07/05 01:47:29;;;;;;;3.20;2.20;;;;;;;18.75;52.83;97698.59;5062617;28;20024;-75
2023/07/05 01:50:10;;;;;;;6.22;2.47;;;;;;;18.97;51.76;97695.91;5053373;28;20037;-74
2023/07/05 01:52:53;;;;;;;4.03;2.47;;;;;;;19.01;51.52;97696.88;5053190;28;20080;-73
2023/07/05 01:55:25;;;;;;;6.13;2.70;;;;;;;19.06;51.17;97688.56;5040758;28;20483;-75
2023/07/05 01:57:55;;;;;;;3.33;2.00;;;;;;;19.12;51.48;97686.50;5050736;28;20029;-74
2023/07/05 02:00:22;;;;;;;2.70;2.20;;;;;;;19.35;50.77;97679.09;5052684;28;20057;-74
2023/07/05 02:02:58;;;;;;;3.47;2.25;;;;;;;19.33;50.19;97666.56;5053133;28;20071;-74
2023/07/05 02:05:27;;;;;;;4.65;2.60;;;;;;;19.21;50.86;97663.59;5053807;28;20037;-74
2023/07/05 02:07:53;;;;;;;3.95;2.20;;;;;;;19.21;50.36;97662.78;5065744;28;20032;-73
2023/07/05 02:10:19;;;;;;;7.13;2.38;;;;;;;19.11;50.78;97669.31;5064207;28;20421;-74
2023/07/05 02:12:47;;;;;;;3.47;2.08;;;;;;;19.06;51.14;97666.72;5052449;28;20028;-74
2023/07/05 02:15:13;;;;;;;6.47;2.45;;;;;;;18.86;51.63;97660.94;5072417;28;20032;-75
2023/07/05 02:17:39;;;;;;;5.97;2.13;;;;;;;18.52;51.84;97667.78;5068418;28;20111;-76
2023/07/05 02:20:06;;;;;;;3.92;2.10;;;;;;;18.66;51.25;97667.72;5047355;28;20582;-75
2023/07/05 02:22:31;;;;;;;9.55;2.55;;;;;;;18.20;52.27;97673.41;5067189;28;20039;-74
2023/07/05 02:24:56;;;;;;;3.08;2.13;;;;;;;18.36;52.33;97669.22;5063283;28;20028;-75
2023/07/05 02:27:22;;;;;;;8.02;2.40;;;;;;;18.39;52.18;97686.88;5068017;28;20021;-75
2023/07/05 02:29:47;;;;;;;2.60;1.75;;;;;;;18.39;52.30;97676.75;5064605;28;20033;-75
2023/07/05 02:32:13;;;;;;;4.47;2.28;;;;;;;18.62;52.02;97674.91;5059891;28;20017;-75
2023/07/05 02:34:40;;;;;;;4.97;2.28;;;;;;;18.91;51.35;97675.28;5060931;28;20095;-75
2023/07/05 02:37:07;;;;;;;6.05;2.47;;;;;;;18.93;50.69;97678.50;5052009;28;20025;-75
2023/07/05 02:39:32;;;;;;;3.15;2.08;;;;;;;18.94;50.31;97677.41;5035335;28;20033;-75
2023/07/05 02:41:57;;;;;;;3.92;2.38;;;;;;;18.76;50.64;97666.69;5053680;28;20040;-75
2023/07/05 02:44:23;;;;;;;4.70;2.35;;;;;;;18.63;51.14;97665.59;5059724;28;20041;-75
2023/07/05 02:46:48;;;;;;;4.63;2.72;;;;;;;18.36;51.55;97668.41;5050151;28;20017;-76
2023/07/05 02:49:14;;;;;;;5.20;2.50;;;;;;;18.33;51.44;97664.38;5064580;28;20066;-74
2023/07/05 02:51:41;;;;;;;5.30;2.00;;;;;;;18.45;51.41;97672.00;5041701;28;20438;-75
2023/07/05 02:54:07;;;;;;;6.50;2.53;;;;;;;18.22;52.27;97662.16;5043324;28;20661;-75
2023/07/05 02:56:33;;;;;;;5.70;2.83;;;;;;;18.48;51.53;97665.97;5064789;28;20029;-75
2023/07/05 02:58:58;;;;;;;3.30;2.40;;;;;;;18.30;51.91;97666.88;5063257;28;20497;-75
2023/07/05 03:01:24;;;;;;;3.40;2.28;;;;;;;18.45;51.63;97677.47;5067557;28;20021;-76
2023/07/05 03:03:49;;;;;;;4.07;2.28;;;;;;;18.63;50.96;97673.78;5046533;28;20386;-75
2023/07/05 03:06:14;;;;;;;4.53;1.90;;;;;;;18.58;51.16;97679.34;5058055;28;20017;-76
2023/07/05 03:08:40;;;;;;;7.53;2.75;;;;;;;18.66;51.38;97694.19;5060168;28;20041;-76
2023/07/05 03:11:05;;;;;;;7.40;2.08;;;;;;;18.86;51.47;97683.59;5034708;28;20025;-76
2023/07/05 03:13:32;;;;;;;7.93;3.05;;;;;;;19.00;50.67;97689.78;5062187;28;20089;-75
2023/07/05 03:15:58;;;;;;;5.82;2.50;;;;;;;19.11;50.75;97706.75;5057775;28;20066;-74
2023/07/05 03:18:24;;;;;;;5.82;3.15;;;;;;;19.02;50.48;97714.84;5054531;28;20060;-74
2023/07/05 03:20:49;;;;;;;8.30;3.25;;;;;;;19.07;50.79;97722.91;5054356;28;20021;-74
2023/07/05 03:23:15;;;;;;;7.03;3.08;;;;;;;18.97;51.27;97755.94;5059262;28;20041;-74
2023/07/05 03:25:41;;;;;;;5.82;3.22;;;;;;;18.67;51.55;97815.84;5048976;28;20071;-74
2023/07/05 03:28:07;;;;;;;5.22;2.83;;;;;;;18.96;50.91;97819.00;5062228;28;20615;-74
2023/07/05 03:30:34;;;;;;;6.43;2.88;;;;;;;18.95;51.51;97829.09;5054197;28;20025;-73
2023/07/05 03:33:00;;;;;;;6.65;3.53;;;;;;;18.30;53.01;97855.00;5058967;28;20036;-73
2023/07/05 03:35:27;;;;;;;3.17;2.35;;;;;;;17.85;53.94;97830.22;5050792;28;20099;-74
2023/07/05 03:37:52;;;;;;;3.65;2.17;;;;;;;17.99;54.36;97838.44;5070669;28;20040;-74
2023/07/05 03:40:18;;;;;;;9.88;1.80;;;;;;;17.98;54.81;97841.44;5054127;28;20017;-74
2023/07/05 03:42:43;;;;;;;4.97;1.83;;;;;;;18.44;53.89;97856.63;5060585;28;20036;-72
2023/07/05 03:45:09;;;;;;;4.63;2.45;;;;;;;18.20;54.72;97856.03;5051974;28;20021;-71
2023/07/05 03:47:35;;;;;;;3.47;2.08;;;;;;;18.28;54.58;97857.22;5052061;28;20035;-72
2023/07/05 03:50:00;;;;;;;4.20;2.33;;;;;;;18.93;53.29;97858.63;5050930;28;20028;-72
2023/07/05 03:52:26;;;;;;;5.78;2.80;;;;;;;19.06;53.36;97846.88;5050991;28;20088;-75
2023/07/05 03:54:51;;;;;;;5.40;1.88;;;;;;;18.69;54.06;97863.53;5069482;28;20024;-73
2023/07/05 03:57:17;;;;;;;3.20;1.98;;;;;;;19.21;55.88;97854.72;5059872;28;20062;-74
2023/07/05 03:59:42;;;;;;;5.57;2.05;;;;;;;18.33;57.69;97865.31;5069057;28;20028;-72
2023/07/05 04:02:08;;;;;;;100.32;45.60;;;;;;;18.07;61.09;97873.16;5070375;28;20040;-72
2023/07/05 04:04:33;;;;;;;13.68;12.80;;;;;;;18.01;64.25;97859.94;5070324;28;20149;-73
2023/07/05 04:06:59;;;;;;;9.18;4.13;;;;;;;17.49;68.96;97867.31;5060637;28;20033;-72
2023/07/05 04:09:25;;;;;;;10.07;9.27;;;;;;;17.87;67.61;97858.00;5047409;28;20044;-72
2023/07/05 04:11:51;;;;;;;0.88;0.88;;;;;;;17.78;68.35;97858.97;5050443;28;20029;-74
2023/07/05 04:14:16;;;;;;;71.28;66.78;;;;;;;18.12;70.94;97862.16;5033404;28;20024;-74
2023/07/05 04:16:41;;;;;;;121.55;84.55;;;;;;;18.14;71.56;97849.03;5061399;28;20043;-75
2023/07/05 04:19:07;;;;;;;408.45;55.65;;;;;;;18.41;71.85;97829.16;5055145;28;20032;-75
2023/07/05 04:21:32;;;;;;;19.67;8.07;;;;;;;18.86;69.51;97830.94;5043240;28;20037;-75
2023/07/05 04:23:58;;;;;;;15.20;7.25;;;;;;;18.74;70.56;97833.38;5067008;28;20024;-75
2023/07/05 04:26:25;;;;;;;238.85;79.32;;;;;;;18.88;70.83;97817.78;5059954;28;20662;-75
2023/07/05 04:28:51;;;;;;;4.63;4.47;;;;;;;18.26;73.51;97799.47;5057115;28;20475;-75
2023/07/05 04:31:23;;;;;;;1.80;1.80;;;;;;;18.18;73.40;97792.00;5060286;28;20040;-75
2023/07/05 04:33:49;;;;;;;1.17;1.17;;;;;;;18.39;72.15;97809.59;5048060;28;20045;-75
2023/07/05 04:36:14;;;;;;;3.05;2.85;;;;;;;17.91;74.48;97796.34;5057649;28;20119;-75
2023/07/05 04:38:39;;;;;;;1.20;1.20;;;;;;;18.16;73.58;97778.66;5067757;28;20103;-75
2023/07/05 04:41:05;;;;;;;19.00;12.55;;;;;;;18.18;73.17;97775.66;5071179;28;20028;-76
2023/07/05 04:43:30;;;;;;;2.75;2.50;;;;;;;18.15;73.59;97770.81;5048597;28;20037;-76
2023/07/05 04:45:57;;;;;;;2.40;2.30;;;;;;;18.05;74.09;97776.44;5061102;28;20027;-76
2023/07/05 04:48:24;;;;;;;10.50;7.88;;;;;;;18.04;74.66;97793.94;5056547;28;20521;-75
2023/07/05 04:50:52;;;;;;;2.38;2.00;;;;;;;17.65;75.75;97799.81;5061107;28;20040;-76
2023/07/05 04:53:21;;;;;;;12.32;11.65;;;;;;;17.89;75.68;97773.22;5067082;28;20458;-76
2023/07/05 04:55:49;;;;;;;21.90;20.25;;;;;;;18.18;74.41;97764.75;5067273;28;20025;-75
2023/07/05 04:58:15;;;;;;;70.50;13.90;;;;;;;18.31;74.85;97764.75;5060448;28;20051;-75
2023/07/05 05:00:46;;;;;;;4.60;4.40;;;;;;;18.16;75.80;97765.03;5061518;28;20031;-75
2023/07/05 05:03:18;;;;;;;43.67;13.43;;;;;;;18.46;74.59;97760.94;5067299;28;20041;-75
2023/07/05 05:05:46;;;;;;;3.55;3.35;;;;;;;17.72;77.25;97762.91;5067189;28;20041;-77
2023/07/05 05:08:12;;;;;;;13.00;12.02;;;;;;;17.54;78.13;97761.06;5061439;28;20066;-76
2023/07/05 05:10:38;;;;;;;190.57;71.55;;;;;;;18.04;76.69;97753.06;5054462;28;20071;-76
2023/07/05 05:13:04;;;;;;;215.60;118.95;;;;;;;17.65;77.40;97761.69;5056490;28;20505;-71
2023/07/05 05:15:34;;;;;;;11.00;10.50;;;;;;;17.93;77.15;97758.69;5059847;28;20123;-75
2023/07/05 05:17:59;;;;;;;15.50;14.55;;;;;;;17.83;77.04;97758.06;5074051;28;20070;-75
2023/07/05 05:20:24;;;;;;;1.90;1.80;;;;;;;18.10;76.65;97757.28;5072577;28;20119;-76
2023/07/05 05:22:50;;;;;;;144.50;116.70;;;;;;;18.17;76.85;97757.69;5060879;28;20385;-75
2023/07/05 05:25:15;;;;;;;195.75;185.80;;;;;;;18.59;75.87;97746.44;5059877;28;20045;-76
2023/07/05 05:27:40;;;;;;;10.80;8.82;;;;;;;19.13;73.47;97742.72;5066084;28;20017;-75
2023/07/05 05:30:06;;;;;;;107.53;94.43;;;;;;;19.42;73.09;97737.63;5068310;28;20039;-75
2023/07/05 05:32:33;;;;;;;458.02;242.82;;;;;;;19.40;73.39;97734.41;5053074;28;20623;-75
2023/07/05 05:34:58;;;;;;;47.63;35.70;;;;;;;19.19;73.48;97731.34;5050543;28;20033;-73
2023/07/05 05:37:24;;;;;;;56.72;53.15;;;;;;;19.00;73.85;97743.56;5067126;28;20490;-76
2023/07/05 05:39:49;;;;;;;439.27;96.15;;;;;;;18.84;74.18;97751.31;5053743;28;20124;-74
2023/07/05 05:42:14;;;;;;;90.90;38.72;;;;;;;19.06;74.33;97732.25;5065547;28;20028;-75
2023/07/05 05:44:40;;;;;;;46.15;41.30;;;;;;;19.11;74.85;97745.75;5067706;28;20165;-75
2023/07/05 05:47:05;;;;;;;4.28;2.38;;;;;;;19.09;75.31;97741.72;5060015;28;20028;-75
2023/07/05 05:49:31;;;;;;;3.60;2.00;;;;;;;19.21;75.40;97734.56;5052931;28;20036;-76
2023/07/05 05:51:56;;;;;;;4.32;2.05;;;;;;;19.24;75.15;97738.63;5074247;28;20027;-75
2023/07/05 05:54:21;;;;;;;5.25;2.50;;;;;;;19.09;74.54;97736.28;5072786;28;20469;-75
2023/07/05 05:56:47;;;;;;;4.88;2.58;;;;;;;19.03;75.26;97749.22;5066306;28;20021;-75
2023/07/05 05:59:12;;;;;;;4.90;2.95;;;;;;;19.19;74.20;97750.47;5049361;28;20028;-75
2023/07/05 06:01:38;;;;;;;3.50;2.22;;;;;;;18.86;75.56;97743.63;5059878;28;20028;-76
2023/07/05 06:04:03;;;;;;;551.13;56.88;;;;;;;18.66;76.45;97751.47;5058565;28;20033;-75
2023/07/05 06:06:28;;;;;;;23.27;8.80;;;;;;;18.96;75.61;97743.41;5067138;28;20383;-75
2023/07/05 06:08:54;;;;;;;131.95;71.22;;;;;;;19.13;75.56;97749.00;5065664;28;20031;-75
2023/07/05 06:11:19;;;;;;;216.35;105.05;;;;;;;18.76;77.13;97749.34;5060319;28;20032;-76
2023/07/05 06:13:44;;;;;;;109.47;50.08;;;;;;;18.83;76.67;97755.19;5059113;28;20120;-75
2023/07/05 06:16:10;;;;;;;105.57;82.72;;;;;;;18.66;76.36;97757.75;5071430;28;20028;-75
2023/07/05 06:18:35;;;;;;;168.30;88.60;;;;;;;18.81;76.37;97757.38;5072239;28;20044;-76
2023/07/05 06:21:01;;;;;;;63.22;16.40;;;;;;;18.61;76.47;97746.94;5058504;28;20021;-74
2023/07/05 06:23:26;;;;;;;180.25;44.10;;;;;;;18.60;76.35;97764.41;5059791;28;20501;-76
2023/07/05 06:25:52;;;;;;;199.60;77.97;;;;;;;18.67;76.05;97766.75;5066412;28;20029;-75
2023/07/05 06:28:18;;;;;;;31.63;24.88;;;;;;;18.67;76.47;97772.97;5064614;28;20498;-75
2023/07/05 06:30:44;;;;;;;4.22;3.20;;;;;;;18.53;76.19;97772.19;5058644;28;20039;-75
2023/07/05 06:33:09;;;;;;;14.05;12.77;;;;;;;18.48;76.04;97761.41;5060966;28;20029;-75
2023/07/05 06:35:35;;;;;;;4.40;3.35;;;;;;;18.77;75.09;97766.50;5050831;28;20398;-75
2023/07/05 06:38:01;;;;;;;4.38;3.33;;;;;;;18.98;75.43;97760.25;5060427;28;20044;-76
2023/07/05 06:40:26;;;;;;;5.50;3.25;;;;;;;18.62;75.57;97767.66;5058162;28;20036;-76
2023/07/05 06:42:52;;;;;;;6.00;3.92;;;;;;;18.52;76.13;97770.59;5071946;28;20028;-76
2023/07/05 06:45:22;;;;;;;6.15;3.47;;;;;;;18.73;76.40;97771.78;5058576;28;20024;-76
2023/07/05 06:47:50;;;;;;;9.23;4.00;;;;;;;19.04;75.79;97767.19;5073169;28;20044;-75
2023/07/05 06:50:15;;;;;;;84.82;49.00;;;;;;;18.92;75.91;97783.34;5055458;28;20029;-76
2023/07/05 06:52:41;;;;;;;27.92;22.23;;;;;;;19.42;75.25;97775.88;5037958;28;20028;-75
2023/07/05 06:55:06;;;;;;;35.80;14.25;;;;;;;19.53;74.62;97770.97;5022285;28;20044;-76
2023/07/05 06:57:32;;;;;;;5.30;3.47;;;;;;;19.67;73.88;97775.22;5072109;28;20545;-76
2023/07/05 06:59:57;;;;;;;9.15;3.75;;;;;;;19.73;73.38;97784.91;5065291;28;20023;-76
2023/07/05 07:02:23;;;;;;;229.32;159.48;;;;;;;19.61;73.81;97786.59;5048231;28;20123;-76
2023/07/05 07:04:48;;;;;;;11.60;5.82;;;;;;;19.42;74.71;97800.44;5031515;28;20053;-72
2023/07/05 07:07:13;;;;;;;7.65;4.80;;;;;;;19.35;74.59;97788.34;5065645;28;20403;-75
2023/07/05 07:09:40;;;;;;;5.18;3.22;;;;;;;19.54;74.89;97786.22;5051769;28;20086;-74
2023/07/05 07:12:06;;;;;;;5.22;3.22;;;;;;;19.45;74.00;97788.91;5065548;28;20037;-74
2023/07/05 07:14:32;;;;;;;4.38;3.03;;;;;;;18.99;74.68;97791.09;5064178;28;20116;-73
2023/07/05 07:16:58;;;;;;;44.55;7.75;;;;;;;19.02;75.20;97785.81;5080968;28;20702;-76
2023/07/05 07:19:23;;;;;;;6.93;4.30;;;;;;;19.01;74.57;97781.50;5064344;28;20021;-76
2023/07/05 07:21:49;;;;;;;5.70;4.57;;;;;;;19.02;75.39;97788.53;5049892;28;20063;-76
2023/07/05 07:24:15;;;;;;;9.32;4.45;;;;;;;19.01;74.86;97800.59;5062306;28;20031;-76
2023/07/05 07:26:40;;;;;;;8.57;4.38;;;;;;;18.74;76.59;97806.09;5062054;28;20514;-76
2023/07/05 07:29:05;;;;;;;8.00;5.18;;;;;;;18.85;76.13;97802.06;5053425;28;20021;-76
2023/07/05 07:31:32;;;;;;;8.95;4.60;;;;;;;19.07;75.87;97793.88;5070753;28;20063;-76
2023/07/05 07:34:00;;;;;;;7.55;4.32;;;;;;;19.26;74.29;97797.25;5048343;28;20025;-76
2023/07/05 07:36:27;;;;;;;7.00;4.30;;;;;;;18.85;77.55;97795.78;5059894;28;20028;-76
2023/07/05 07:38:53;;;;;;;6.82;4.22;;;;;;;18.91;77.83;97809.00;5033685;28;20025;-77
2023/07/05 07:41:27;;;;;;;15.90;6.15;;;;;;;19.17;78.55;97799.13;5063770;28;20044;-76
2023/07/05 07:43:55;;;;;;;29.33;5.63;;;;;;;19.12;77.90;97791.03;5054216;28;20095;-76
2023/07/05 07:46:25;;;;;;;8.90;4.70;;;;;;;19.01;78.26;97808.78;5086555;28;20029;-76
2023/07/05 07:48:52;;;;;;;7.22;4.70;;;;;;;18.60;79.83;97833.41;5058986;28;20032;-76
2023/07/05 07:51:19;;;;;;;8.45;5.40;;;;;;;18.68;80.51;97845.53;5057235;28;20356;-75
2023/07/05 07:53:44;;;;;;;7.00;5.43;;;;;;;18.58;81.14;97846.56;5053797;28;20028;-76
2023/07/05 07:56:14;;;;;;;9.13;5.30;;;;;;;18.78;80.83;97839.88;5068861;28;20555;-75
2023/07/05 07:58:40;;;;;;;8.23;5.30;;;;;;;18.73;80.27;97829.06;5059387;28;20036;-76
2023/07/05 08:01:22;;;;;;;8.43;6.03;;;;;;;18.68;80.68;97817.44;5057016;28;20028;-76
2023/07/05 08:03:49;;;;;;;12.07;8.38;;;;;;;18.50;82.03;97830.91;5060246;28;20033;-76
2023/07/05 08:06:15;;;;;;;9.15;6.30;;;;;;;18.52;81.54;97836.06;5069711;28;20020;-76
2023/07/05 08:08:40;;;;;;;7.72;6.07;;;;;;;18.68;81.07;97834.63;5033672;28;20094;-76
2023/07/05 08:11:08;;;;;;;10.50;5.72;;;;;;;18.66;81.60;97841.50;5069713;28;20470;-76
2023/07/05 08:13:34;;;;;;;8.57;5.82;;;;;;;18.74;80.99;97844.31;5058255;28;20037;-76
2023/07/05 08:16:00;;;;;;;9.82;6.45;;;;;;;18.69;80.57;97858.06;5068553;28;20515;-76
2023/07/05 08:18:26;;;;;;;7.35;6.00;;;;;;;18.89;80.18;97862.28;5070266;28;20040;-76
2023/07/05 08:20:52;;;;;;;8.68;6.22;;;;;;;19.10;78.76;97864.25;5057774;28;20074;-76
2023/07/05 08:23:17;;;;;;;9.70;6.38;;;;;;;18.97;80.15;97859.66;5053319;28;20040;-76
2023/07/05 08:25:43;;;;;;;7.88;5.72;;;;;;;19.30;79.13;97863.78;5064574;28;20368;-76
2023/07/05 08:28:13;;;;;;;6.75;5.15;;;;;;;19.55;78.74;97856.13;5062887;28;20040;-76
2023/07/05 08:30:39;;;;;;;9.63;6.03;;;;;;;19.51;79.82;97866.09;5056680;28;20027;-76
2023/07/05 08:33:06;;;;;;;8.30;6.00;;;;;;;19.35;79.17;97867.53;5057678;28;20537;-76
2023/07/05 08:35:31;;;;;;;7.75;5.90;;;;;;;19.40;79.70;97864.69;5049025;28;20029;-76
2023/07/05 08:37:56;;;;;;;6.68;5.78;;;;;;;19.22;78.97;97878.19;5058849;28;20033;-76
2023/07/05 08:40:26;;;;;;;5.80;4.65;;;;;;;19.64;78.15;97862.47;5035464;28;20112;-75
2023/07/05 08:43:03;;;;;;;10.43;9.50;;;;;;;19.17;78.62;97875.56;5045576;28;20065;-77
2023/07/05 08:45:33;;;;;;;9.02;8.23;;;;;;;19.31;79.18;97876.34;5049902;28;20040;-77
2023/07/05 08:48:02;;;;;;;6.07;5.57;;;;;;;19.47;79.02;97884.19;5034328;28;20029;-76
2023/07/05 08:50:31;;;;;;;5.50;4.20;;;;;;;19.42;79.07;97878.88;5053302;28;20138;-76
2023/07/05 08:53:23;;;;;;;6.63;3.70;;;;;;;19.62;78.84;97887.38;5067675;28;20655;-75
2023/07/05 08:55:58;;;;;;;6.25;5.20;;;;;;;19.71;77.43;97884.69;5063367;28;20041;-76
2023/07/05 08:58:25;;;;;;;4.88;3.50;;;;;;;19.51;78.11;97887.94;5056795;28;20501;-76
2023/07/05 09:00:58;;;;;;;4.78;3.53;;;;;;;20.06;77.67;97878.34;5052909;28;20020;-76
2023/07/05 09:03:24;;;;;;;6.53;5.32;;;;;;;19.93;76.73;97871.81;5061472;28;20036;-76
2023/07/05 09:06:00;;;;;;;6.13;5.22;;;;;;;20.52;75.15;97870.53;5046107;28;20032;-76
2023/07/05 09:08:34;;;;;;;7.38;4.38;;;;;;;20.96;75.99;97877.75;5059181;28;20054;-77
2023/07/05 09:11:06;;;;;;;5.43;4.80;;;;;;;20.32;76.12;97873.84;5057424;28;20037;-76
2023/07/05 09:13:37;;;;;;;6.25;4.50;;;;;;;20.19;76.38;97882.91;5058124;28;20086;-76
2023/07/05 09:16:08;;;;;;;6.05;4.95;;;;;;;20.42;77.93;97879.03;5067978;28;20040;-76
2023/07/05 09:18:50;;;;;;;5.45;4.50;;;;;;;20.14;77.87;97871.31;5070699;28;20083;-76
2023/07/05 09:21:31;;;;;;;6.43;5.85;;;;;;;20.28;75.86;97877.53;5054033;28;20044;-76
2023/07/05 09:24:25;;;;;;;7.15;4.68;;;;;;;20.51;76.13;97881.81;5065986;28;20444;-77
2023/07/05 09:26:55;;;;;;;165.10;18.30;;;;;;;20.39;76.32;97890.63;5056878;28;20128;-77
2023/07/05 09:29:26;;;;;;;4.18;3.63;;;;;;;20.61;75.16;97889.72;5052583;28;20072;-77
2023/07/05 09:31:53;;;;;;;82.68;32.70;;;;;;;21.00;73.01;97881.47;5039401;28;20036;-76
2023/07/05 09:34:41;;;;;;;5.30;3.60;;;;;;;21.07;73.39;97883.75;5060885;28;20029;-76
2023/07/05 09:37:24;;;;;;;55.53;14.73;;;;;;;22.08;72.40;97866.84;5049281;28;20047;-76
2023/07/05 09:39:58;;;;;;;236.45;36.22;;;;;;;22.22;71.15;97865.47;5053814;28;20063;-75
2023/07/05 09:42:28;;;;;;;44.20;4.15;;;;;;;21.84;68.90;97856.38;5074190;28;20075;-76
2023/07/05 09:44:53;;;;;;;3.83;2.70;;;;;;;21.78;70.48;97850.22;5056245;28;20435;-76
2023/07/05 09:47:20;;;;;;;2.92;2.20;;;;;;;21.54;68.40;97860.88;5073014;28;20135;-75
2023/07/05 09:49:46;;;;;;;3.67;2.25;;;;;;;21.80;69.11;97853.44;5069795;28;20041;-77
2023/07/05 09:52:12;;;;;;;3.17;2.53;;;;;;;21.64;66.67;97871.53;5062383;28;20111;-76
2023/07/05 09:54:37;;;;;;;4.53;2.63;;;;;;;20.62;62.32;97873.00;5055848;28;20036;-77
2023/07/05 09:57:09;;;;;;;3.00;2.15;;;;;;;21.27;60.07;97872.19;5052318;28;20040;-76
2023/07/05 09:59:36;;;;;;;3.97;2.40;;;;;;;20.89;59.45;97877.41;5068563;28;20104;-76
2023/07/05 10:02:25;;;;;;;4.65;2.60;;;;;;;21.06;59.69;97882.13;5044354;28;20082;-77
2023/07/05 10:04:53;;;;;;;3.92;2.47;;;;;;;20.74;59.27;97885.25;5067968;28;20055;-76
2023/07/05 10:07:24;;;;;;;4.10;2.17;;;;;;;20.89;58.85;97882.06;5055093;28;20070;-76
2023/07/05 10:09:59;;;;;;;3.80;2.40;;;;;;;21.16;59.36;97887.31;5064155;28;20475;-76
2023/07/05 10:12:28;;;;;;;3.40;2.47;;;;;;;21.34;58.41;97884.28;5065899;28;20028;-76
2023/07/05 10:14:55;;;;;;;4.72;2.50;;;;;;;20.91;57.25;97890.78;5062003;28;20036;-76
2023/07/05 10:17:20;;;;;;;3.42;2.30;;;;;;;20.71;57.34;97877.69;5052504;28;20037;-77
2023/07/05 10:19:53;;;;;;;5.50;2.70;;;;;;;21.12;58.21;97902.78;5072462;28;20474;-77
2023/07/05 10:22:26;;;;;;;3.42;2.30;;;;;;;20.89;57.00;97893.81;5068544;28;20037;-77
2023/07/05 10:24:57;;;;;;;4.35;2.65;;;;;;;20.90;57.02;97889.97;5064425;28;20509;-76
2023/07/05 10:27:31;;;;;;;3.10;2.25;;;;;;;21.02;55.37;97892.09;5035513;28;20033;-77
2023/07/05 10:30:05;;;;;;;13.73;3.13;;;;;;;21.37;54.53;97899.28;5066894;28;20048;-76
2023/07/05 10:32:31;;;;;;;4.65;2.63;;;;;;;20.88;54.35;97902.38;5060241;28;20127;-77
2023/07/05 10:34:57;;;;;;;5.10;3.03;;;;;;;20.82;55.52;97887.22;5070407;28;20107;-77
2023/07/05 10:37:32;;;;;;;4.05;2.40;;;;;;;21.20;54.06;97893.75;5043598;28;20040;-76
2023/07/05 10:39:58;;;;;;;4.53;3.03;;;;;;;21.45;54.55;97890.22;5055242;28;20032;-76
2023/07/05 10:42:25;;;;;;;4.50;2.90;;;;;;;22.34;52.44;97876.56;5063378;28;20033;-76
2023/07/05 10:44:50;;;;;;;4.53;2.97;;;;;;;22.51;52.92;97895.72;5065172;28;20032;-77
2023/07/05 10:47:17;;;;;;;5.70;3.20;;;;;;;21.60;53.01;97908.94;5060758;28;20025;-76
2023/07/05 10:49:44;;;;;;;4.22;2.83;;;;;;;22.20;52.11;97902.59;5048926;28;20033;-77
2023/07/05 10:52:11;;;;;;;3.35;2.47;;;;;;;21.46;52.19;97908.31;5071677;28;20047;-76
2023/07/05 10:55:02;;;;;;;4.53;3.30;;;;;;;22.21;51.35;97907.78;5057991;28;20415;-77
2023/07/05 10:57:34;;;;;;;4.95;3.20;;;;;;;21.89;51.96;97911.84;5051593;28;20044;-76
2023/07/05 11:00:13;;;;;;;5.70;3.67;;;;;;;22.29;51.46;97903.38;5058222;28;20082;-76
2023/07/05 11:02:43;;;;;;;5.38;3.28;;;;;;;21.91;51.63;97906.84;5071363;28;20138;-77
2023/07/05 11:05:22;;;;;;;5.30;3.63;;;;;;;21.60;50.40;97900.72;5051108;28;20546;-77
2023/07/05 11:07:50;;;;;;;5.38;3.80;;;;;;;21.64;51.04;97909.91;5047930;28;20040;-77
2023/07/05 11:10:15;;;;;;;202.57;12.85;;;;;;;21.59;52.41;97910.06;5046013;28;20032;-76
2023/07/05 11:12:41;;;;;;;21.90;4.70;;;;;;;21.20;52.83;97921.16;5050201;28;20033;-77
2023/07/05 11:15:11;;;;;;;5.85;4.18;;;;;;;21.61;51.50;97918.75;5051418;28;20452;-76
2023/07/05 11:17:37;;;;;;;6.35;4.03;;;;;;;21.42;51.30;97923.78;5069605;28;20043;-76
2023/07/05 11:20:39;;;;;;;6.78;4.03;;;;;;;22.14;50.54;97923.13;5051200;28;20120;-77
2023/07/05 11:23:07;;;;;;;4.93;3.75;;;;;;;23.02;49.44;97924.91;5052220;28;20044;-77
2023/07/05 11:25:51;;;;;;;5.43;3.38;;;;;;;23.45;45.09;97929.38;5070827;28;20028;-77
2023/07/05 11:28:37;;;;;;;5.25;3.20;;;;;;;22.73;43.67;97926.84;5070927;28;20047;-76
2023/07/05 11:31:04;;;;;;;3.17;2.53;;;;;;;22.51;42.81;97927.84;5061018;28;20036;-75
2023/07/05 11:33:30;;;;;;;4.32;3.00;;;;;;;21.78;43.76;97927.00;5023851;28;20029;-75